createdAt,value
2018-12-27T00:06:27.333Z,63.81
2018-12-27T00:09:37.683Z,63.69
2018-12-27T00:12:40.558Z,63.49
2018-12-27T00:15:43.341Z,63.25
2018-12-27T00:18:53.595Z,61.98
2018-12-27T00:21:56.863Z,62.50
2018-12-27T00:24:59.876Z,62.18
2018-12-27T00:28:03.219Z,60.53
2018-12-27T00:34:35.895Z,60.26
2018-12-27T00:37:46.313Z,60.50
2018-12-27T00:40:49.057Z,60.91
2018-12-27T00:43:51.627Z,60.67
2018-12-27T00:47:01.974Z,60.81
2018-12-27T00:50:04.778Z,61.63
2018-12-27T00:53:08.017Z,61.90
2018-12-27T00:56:18.263Z,60.83
2018-12-27T00:59:21.676Z,61.66
2018-12-27T01:02:32.080Z,61.64
2018-12-27T01:05:34.847Z,61.98
2018-12-27T01:08:45.176Z,63.04
2018-12-27T01:11:47.907Z,63.91
2018-12-27T01:14:58.211Z,64.02
2018-12-27T01:18:00.969Z,64.26
2018-12-27T01:21:11.316Z,61.63
2018-12-27T01:24:13.802Z,59.94
2018-12-27T01:27:16.947Z,61.18
2018-12-27T01:30:27.302Z,61.13
2018-12-27T01:33:30.081Z,61.94
2018-12-27T01:36:32.664Z,60.81
2018-12-27T01:39:43.081Z,60.52
2018-12-27T01:42:46.215Z,60.57
2018-12-27T01:45:56.557Z,60.92
2018-12-27T01:48:59.200Z,60.86
2018-12-27T01:52:09.530Z,59.86
2018-12-27T01:55:12.313Z,60.17
2018-12-27T01:58:22.607Z,59.54
2018-12-27T02:01:25.546Z,59.54
2018-12-27T02:04:28.629Z,59.04
2018-12-27T02:07:38.965Z,58.89
2018-12-27T02:10:42.364Z,58.67
2018-12-27T02:13:52.681Z,58.55
2018-12-27T02:16:55.463Z,59.49
2018-12-27T02:19:58.003Z,59.02
2018-12-27T02:23:00.687Z,58.15
2018-12-27T02:26:11.112Z,58.54
2018-12-27T02:29:14.401Z,59.05
2018-12-27T02:32:24.708Z,58.79
2018-12-27T02:35:27.556Z,58.85
2018-12-27T02:42:00.384Z,59.44
2018-12-27T02:45:10.685Z,58.86
2018-12-27T02:48:13.822Z,59.33
2018-12-27T02:51:24.202Z,59.90
2018-12-27T02:54:27.493Z,60.69
2018-12-27T02:57:37.903Z,61.40
2018-12-27T03:00:40.627Z,61.87
2018-12-27T03:03:44.035Z,61.09
2018-12-27T03:06:54.503Z,62.24
2018-12-27T03:09:57.762Z,61.70
2018-12-27T03:13:08.046Z,60.96
2018-12-27T03:16:11.300Z,59.71
2018-12-27T03:19:21.607Z,59.96
2018-12-27T03:22:24.709Z,60.83
2018-12-27T03:25:27.733Z,61.46
2018-12-27T03:28:30.964Z,62.16
2018-12-27T03:31:41.297Z,62.72
2018-12-27T03:34:43.744Z,62.96
2018-12-27T03:37:54.058Z,62.35
2018-12-27T03:40:56.691Z,61.56
2018-12-27T03:44:06.950Z,62.04
2018-12-27T03:47:09.774Z,61.17
2018-12-27T03:50:20.075Z,61.83
2018-12-27T03:53:22.948Z,62.74
2018-12-27T03:56:33.366Z,62.70
2018-12-27T03:59:36.014Z,63.09
2018-12-27T04:02:46.439Z,62.63
2018-12-27T04:05:49.445Z,61.22
2018-12-27T04:08:52.913Z,61.69
2018-12-27T04:15:24.881Z,60.99
2018-12-27T04:18:35.132Z,61.86
2018-12-27T04:21:38.140Z,61.35
2018-12-27T04:25:08.886Z,61.98
2018-12-27T04:28:12.187Z,61.91
2018-12-27T04:31:33.230Z,60.96
2018-12-27T04:37:52.620Z,60.15
2018-12-27T04:41:02.868Z,58.36
2018-12-27T04:44:05.790Z,57.34
2018-12-27T04:47:08.831Z,58.29
2018-12-27T04:50:19.090Z,57.09
2018-12-27T04:53:25.267Z,57.80
2018-12-27T04:56:35.529Z,58.82
2018-12-27T04:59:38.266Z,57.51
2018-12-27T05:02:41.468Z,58.01
2018-12-27T05:05:51.791Z,57.26
2018-12-27T05:08:54.931Z,57.38
2018-12-27T05:12:05.195Z,57.63
2018-12-27T05:15:07.682Z,57.93
2018-12-27T05:18:11.060Z,58.58
2018-12-27T05:21:14.129Z,58.04
2018-12-27T05:24:17.295Z,56.77
2018-12-27T05:27:20.159Z,56.15
2018-12-27T05:30:30.432Z,56.27
2018-12-27T05:33:33.070Z,57.45
2018-12-27T05:36:43.351Z,57.03
2018-12-27T05:39:46.736Z,57.31
2018-12-27T05:42:56.970Z,57.74
2018-12-27T05:46:00.408Z,57.20
2018-12-27T05:49:10.700Z,55.83
2018-12-27T05:52:13.247Z,55.91
2018-12-27T05:55:23.518Z,55.35
2018-12-27T05:58:26.674Z,56.33
2018-12-27T06:01:36.999Z,55.76
2018-12-27T06:04:39.721Z,56.11
2018-12-27T06:07:42.504Z,55.60
2018-12-27T06:10:52.826Z,55.12
2018-12-27T06:13:55.379Z,54.57
2018-12-27T06:17:05.638Z,53.82
2018-12-27T06:20:08.184Z,53.87
2018-12-27T06:23:11.122Z,54.44
2018-12-27T06:26:21.371Z,53.75
2018-12-27T06:29:24.234Z,53.15
2018-12-27T06:32:34.514Z,53.07
2018-12-27T06:35:37.192Z,53.64
2018-12-27T06:38:47.492Z,52.94
2018-12-27T06:41:50.522Z,54.19
2018-12-27T06:45:00.786Z,54.13
2018-12-27T06:48:03.848Z,54.60
2018-12-27T06:51:14.100Z,54.76
2018-12-27T06:54:17.260Z,55.28
2018-12-27T06:57:27.559Z,55.41
2018-12-27T07:00:30.264Z,54.55
2018-12-27T07:03:40.585Z,53.58
2018-12-27T07:06:43.983Z,53.26
2018-12-27T07:09:54.285Z,53.33
2018-12-27T07:12:56.806Z,53.99
2018-12-27T07:16:07.044Z,53.93
2018-12-27T07:19:09.709Z,54.73
2018-12-27T07:22:19.977Z,55.50
2018-12-27T07:25:22.875Z,55.78
2018-12-27T07:28:25.794Z,55.48
2018-12-27T07:31:29.218Z,55.94
2018-12-27T07:34:39.510Z,56.40
2018-12-27T07:37:42.150Z,56.96
2018-12-27T07:40:52.428Z,55.97
2018-12-27T07:43:55.475Z,55.77
2018-12-27T07:47:05.814Z,55.11
2018-12-27T07:50:08.854Z,53.88
2018-12-27T07:53:19.142Z,53.50
2018-12-27T07:56:21.807Z,50.90
2018-12-27T07:59:24.856Z,46.74
2018-12-27T08:02:35.156Z,44.22
2018-12-27T08:05:37.598Z,41.36
2018-12-27T08:08:40.903Z,38.26
2018-12-27T08:11:51.203Z,36.92
2018-12-27T08:14:54.428Z,38.18
2018-12-27T08:18:04.693Z,42.72
2018-12-27T08:21:07.425Z,45.68
2018-12-27T08:24:10.246Z,48.19
2018-12-27T08:27:13.193Z,49.50
2018-12-27T08:30:15.809Z,50.46
2018-12-27T08:33:26.104Z,51.87
2018-12-27T08:36:28.614Z,50.51
2018-12-27T08:39:38.904Z,50.97
2018-12-27T08:42:41.522Z,50.43
2018-12-27T08:45:51.791Z,52.71
2018-12-27T08:48:54.720Z,51.07
2018-12-27T08:52:05.022Z,51.03
2018-12-27T08:55:08.205Z,49.74
2018-12-27T08:58:18.448Z,51.44
2018-12-27T09:01:21.114Z,52.25
2018-12-27T09:04:31.393Z,54.05
2018-12-27T09:07:34.093Z,55.34
2018-12-27T09:10:37.295Z,58.04
2018-12-27T09:13:47.576Z,56.53
2018-12-27T09:16:50.532Z,55.84
2018-12-27T09:19:53.453Z,56.09
2018-12-27T09:22:56.217Z,59.25
2018-12-27T09:26:06.485Z,55.29
2018-12-27T09:29:09.915Z,56.33
2018-12-27T09:32:13.180Z,54.51
2018-12-27T09:35:26.525Z,52.36
2018-12-27T09:38:27.801Z,51.94
2018-12-27T09:41:38.036Z,51.64
2018-12-27T09:44:40.745Z,48.75
2018-12-27T09:47:51.006Z,44.19
2018-12-27T09:50:53.804Z,42.12
2018-12-27T09:57:25.534Z,36.55
2018-12-27T10:00:35.965Z,36.20
2018-12-27T10:03:38.827Z,35.15
2018-12-27T10:06:41.553Z,35.86
2018-12-27T10:09:51.828Z,35.71
2018-12-27T10:12:55.014Z,37.27
2018-12-27T10:16:05.319Z,37.60
2018-12-27T10:19:08.177Z,39.07
2018-12-27T10:22:18.416Z,40.04
2018-12-27T10:25:20.927Z,38.15
2018-12-27T10:28:31.207Z,39.13
2018-12-27T10:31:33.877Z,39.95
2018-12-27T10:34:44.165Z,39.78
2018-12-27T10:37:46.994Z,40.32
2018-12-27T10:40:57.256Z,40.38
2018-12-27T10:43:59.762Z,40.97
2018-12-27T10:47:10.019Z,41.95
2018-12-27T10:50:13.336Z,41.17
2018-12-27T10:53:23.600Z,39.72
2018-12-27T10:56:26.717Z,36.86
2018-12-27T11:02:54.440Z,36.08
2018-12-27T11:05:57.156Z,36.87
2018-12-27T11:08:59.908Z,37.17
2018-12-27T11:12:10.246Z,37.21
2018-12-27T11:15:13.366Z,38.14
2018-12-27T11:18:23.655Z,35.52
2018-12-27T11:21:26.970Z,35.39
2018-12-27T11:24:29.790Z,35.60
2018-12-27T11:27:32.972Z,33.58
2018-12-27T11:30:43.272Z,31.20
2018-12-27T11:33:45.799Z,30.18
2018-12-27T11:36:48.842Z,28.94
2018-12-27T11:39:59.178Z,28.96
2018-12-27T11:43:02.005Z,28.47
2018-12-27T11:46:12.258Z,30.09
2018-12-27T11:49:15.485Z,29.04
2018-12-27T11:52:25.773Z,29.28
2018-12-27T11:55:28.610Z,30.67
2018-12-27T11:58:38.889Z,31.77
2018-12-27T12:01:42.366Z,32.00
2018-12-27T12:04:45.361Z,33.38
2018-12-27T12:07:55.661Z,33.91
2018-12-27T12:10:58.241Z,34.24
2018-12-27T12:14:08.543Z,35.30
2018-12-27T12:17:11.822Z,35.28
2018-12-27T12:20:22.127Z,36.21
2018-12-27T12:23:24.701Z,36.67
2018-12-27T12:26:27.578Z,37.49
2018-12-27T12:29:30.723Z,38.70
2018-12-27T12:32:40.961Z,37.15
2018-12-27T12:35:44.333Z,38.38
2018-12-27T12:38:54.644Z,38.49
2018-12-27T12:41:57.897Z,38.24
2018-12-27T12:45:09.076Z,38.67
2018-12-27T12:48:11.957Z,38.62
2018-12-27T12:51:23.139Z,36.50
2018-12-27T12:54:26.755Z,33.99
2018-12-27T12:57:37.230Z,34.05
2018-12-27T13:00:40.531Z,34.46
2018-12-27T13:03:50.820Z,35.67
2018-12-27T13:06:54.055Z,36.45
2018-12-27T13:13:32.766Z,36.47
2018-12-27T13:16:35.309Z,37.49
2018-12-27T13:19:45.609Z,37.80
2018-12-27T13:22:48.383Z,38.65
2018-12-27T13:25:51.292Z,39.32
2018-12-27T13:29:01.538Z,39.84
2018-12-27T13:32:05.076Z,39.30
2018-12-27T13:35:15.409Z,37.49
2018-12-27T13:38:18.788Z,38.53
2018-12-27T13:41:21.771Z,38.98
2018-12-27T13:44:32.088Z,40.42
2018-12-27T13:47:34.970Z,41.25
2018-12-27T13:50:45.270Z,40.75
2018-12-27T13:53:48.387Z,41.42
2018-12-27T13:56:51.254Z,41.89
2018-12-27T14:00:01.546Z,42.06
2018-12-27T14:03:04.872Z,41.80
2018-12-27T14:06:15.128Z,40.53
2018-12-27T14:09:17.851Z,41.38
2018-12-27T14:12:28.174Z,42.34
2018-12-27T14:15:31.567Z,42.20
2018-12-27T14:18:34.799Z,42.34
2018-12-27T14:21:45.093Z,41.73
2018-12-27T14:24:48.341Z,42.64
2018-12-27T14:27:51.415Z,43.19
2018-12-27T14:30:54.639Z,43.99
2018-12-27T14:34:04.882Z,44.58
2018-12-27T14:37:07.779Z,44.75
2018-12-27T14:40:18.119Z,45.47
2018-12-27T14:43:20.867Z,44.81
2018-12-27T14:46:31.149Z,45.72
2018-12-27T14:49:33.923Z,46.84
2018-12-27T14:52:44.172Z,47.17
2018-12-27T14:55:46.802Z,47.82
2018-12-27T14:58:57.068Z,48.19
2018-12-27T15:02:00.446Z,48.90
2018-12-27T15:05:10.683Z,49.65
2018-12-27T15:08:13.608Z,49.46
2018-12-27T15:14:52.820Z,50.77
2018-12-27T15:17:55.580Z,51.19
2018-12-27T15:21:05.854Z,51.93
2018-12-27T15:24:09.075Z,52.28
2018-12-27T15:27:19.359Z,52.58
2018-12-27T15:30:22.419Z,52.38
2018-12-27T15:33:32.733Z,52.34
2018-12-27T15:36:36.260Z,52.82
2018-12-27T15:39:46.563Z,53.27
2018-12-27T15:42:49.876Z,53.52
2018-12-27T15:45:52.770Z,53.74
2018-12-27T15:49:03.100Z,53.76
2018-12-27T15:52:05.753Z,54.15
2018-12-27T15:55:08.294Z,54.50
2018-12-27T15:58:18.661Z,54.96
2018-12-27T16:01:21.160Z,55.28
2018-12-27T16:04:31.467Z,55.35
2018-12-27T16:07:34.516Z,55.30
2018-12-27T16:10:37.392Z,55.48
2018-12-27T16:13:47.697Z,55.81
2018-12-27T16:16:50.160Z,55.66
2018-12-27T16:20:00.437Z,56.09
2018-12-27T16:23:03.186Z,56.39
2018-12-27T16:26:06.503Z,56.28
2018-12-27T16:29:09.257Z,57.15
2018-12-27T16:32:19.771Z,56.47
2018-12-27T16:35:23.021Z,56.93
2018-12-27T16:38:33.352Z,57.66
2018-12-27T16:41:36.026Z,57.96
2018-12-27T16:44:46.352Z,58.52
2018-12-27T16:47:48.805Z,58.96
2018-12-27T16:50:59.083Z,58.76
2018-12-27T16:54:02.253Z,58.92
2018-12-27T16:57:19.495Z,59.37
2018-12-27T17:00:17.715Z,60.00
2018-12-27T17:03:28.031Z,60.09
2018-12-27T17:06:31.037Z,59.60
2018-12-27T17:09:41.263Z,59.72
2018-12-27T17:12:44.423Z,60.23
2018-12-27T17:15:54.766Z,59.97
2018-12-27T17:18:57.874Z,59.54
2018-12-27T17:22:01.057Z,59.73
2018-12-27T17:25:03.669Z,60.20
2018-12-27T17:28:06.537Z,59.98
2018-12-27T17:31:16.825Z,58.70
2018-12-27T17:34:19.391Z,59.90
2018-12-27T17:37:29.666Z,59.04
2018-12-27T17:40:32.731Z,58.29
2018-12-27T17:43:43.010Z,58.48
2018-12-27T17:46:46.153Z,57.81
2018-12-27T17:49:56.440Z,57.28
2018-12-27T17:52:59.713Z,58.29
2018-12-27T17:56:09.992Z,58.86
2018-12-27T17:59:12.795Z,59.52
2018-12-27T18:02:23.231Z,60.18
2018-12-27T18:05:25.904Z,60.75
2018-12-27T18:08:36.278Z,60.90
2018-12-27T18:11:38.976Z,60.98
2018-12-27T18:18:32.004Z,60.92
2018-12-27T18:21:35.183Z,61.24
2018-12-27T18:24:38.202Z,61.72
2018-12-27T18:27:41.091Z,62.28
2018-12-27T18:30:44.161Z,63.11
2018-12-27T18:33:54.447Z,63.75
2018-12-27T18:36:57.972Z,64.07
2018-12-27T18:40:01.045Z,64.23
2018-12-27T18:43:11.309Z,64.26
2018-12-27T18:46:14.242Z,64.34
2018-12-27T18:49:24.519Z,64.62
2018-12-27T18:52:27.038Z,64.76
2018-12-27T18:55:37.349Z,64.87
2018-12-27T18:58:39.955Z,65.21
2018-12-27T19:01:43.286Z,65.48
2018-12-27T19:04:53.551Z,66.02
2018-12-27T19:07:56.927Z,66.31
2018-12-27T19:11:18.788Z,65.92
2018-12-27T19:14:29.086Z,65.75
2018-12-27T19:17:34.972Z,65.66
2018-12-27T19:20:49.188Z,66.22
2018-12-27T19:23:52.350Z,66.40
2018-12-27T19:26:55.584Z,64.85
2018-12-27T19:30:05.948Z,65.03
2018-12-27T19:33:08.733Z,65.49
2018-12-27T19:36:18.997Z,65.64
2018-12-27T19:39:21.874Z,65.23
2018-12-27T19:42:32.235Z,64.48
2018-12-27T19:45:35.547Z,64.16
2018-12-27T19:48:45.849Z,64.24
2018-12-27T19:51:48.372Z,64.41
2018-12-27T19:54:58.678Z,64.97
2018-12-27T19:58:01.348Z,65.69
2018-12-27T20:01:04.691Z,66.16
2018-12-27T20:04:14.937Z,66.39
2018-12-27T20:07:17.454Z,66.76
2018-12-27T20:10:27.709Z,67.24
2018-12-27T20:13:30.286Z,67.29
2018-12-27T20:16:40.571Z,67.08
2018-12-27T20:19:43.362Z,66.94
2018-12-27T20:22:46.212Z,66.75
2018-12-27T20:25:48.961Z,66.14
2018-12-27T20:28:51.963Z,65.95
2018-12-27T20:32:02.324Z,65.46
2018-12-27T20:35:05.737Z,65.42
2018-12-27T20:38:16.022Z,64.97
2018-12-27T20:41:18.843Z,65.20
2018-12-27T20:44:29.127Z,65.38
2018-12-27T20:47:32.047Z,65.05
2018-12-27T20:50:42.321Z,65.58
2018-12-27T20:53:44.814Z,65.58
2018-12-27T20:56:55.112Z,65.28
2018-12-27T20:59:57.861Z,65.11
2018-12-27T21:03:08.200Z,65.18
2018-12-27T21:06:11.543Z,65.13
2018-12-27T21:09:21.849Z,65.58
2018-12-27T21:12:24.402Z,66.00
2018-12-27T21:15:27.691Z,65.92
2018-12-27T21:18:38.182Z,65.96
2018-12-27T21:21:41.421Z,66.23
2018-12-27T21:24:51.727Z,66.48
2018-12-27T21:27:54.510Z,66.07
2018-12-27T21:31:04.808Z,65.63
2018-12-27T21:34:07.794Z,66.14
2018-12-27T21:37:18.081Z,67.44
2018-12-27T21:40:20.745Z,67.79
2018-12-27T21:43:31.023Z,67.75
2018-12-27T21:46:34.223Z,67.82
2018-12-27T21:49:44.580Z,68.32
2018-12-27T21:52:47.209Z,68.66
2018-12-27T21:55:57.491Z,68.96
2018-12-27T21:59:00.591Z,69.15
2018-12-27T22:02:03.747Z,69.51
2018-12-27T22:05:06.425Z,69.72
2018-12-27T22:08:19.293Z,69.93
2018-12-27T22:11:22.521Z,70.18
2018-12-27T22:14:25.384Z,70.61
2018-12-27T22:17:28.288Z,70.82
2018-12-27T22:20:38.685Z,71.08
2018-12-27T22:23:41.919Z,71.07
2018-12-27T22:26:45.120Z,71.15
2018-12-27T22:29:47.779Z,71.40
2018-12-27T22:32:58.057Z,71.47
2018-12-27T22:36:00.533Z,71.47
2018-12-27T22:42:38.441Z,71.37
2018-12-27T22:45:41.742Z,71.62
2018-12-27T22:48:44.412Z,71.75
2018-12-27T22:51:54.704Z,72.00
2018-12-27T22:54:57.553Z,72.35
2018-12-27T22:58:07.831Z,72.86
2018-12-27T23:01:10.696Z,72.84
2018-12-27T23:04:20.938Z,73.12
2018-12-27T23:07:24.279Z,73.53
2018-12-27T23:10:34.532Z,73.88
2018-12-27T23:13:37.653Z,73.99
2018-12-27T23:16:47.955Z,73.70
2018-12-27T23:19:50.643Z,73.65
2018-12-27T23:23:00.907Z,73.75
2018-12-27T23:26:04.376Z,73.81
2018-12-27T23:29:07.503Z,73.96
2018-12-27T23:32:10.322Z,74.11
2018-12-27T23:35:20.653Z,74.27
2018-12-27T23:38:24.077Z,74.28
2018-12-27T23:41:34.387Z,74.50
2018-12-27T23:44:37.019Z,74.27
2018-12-27T23:47:47.295Z,74.03
2018-12-27T23:50:50.256Z,73.67
2018-12-27T23:54:00.568Z,73.10
2018-12-27T23:57:03.922Z,72.77
